Time;durP1;ratioP1;P1;durP2;ratioP2;P2;SDS_P1;SDS_P2;PMS_P1;PMS_P2;Temp;Humidity;BMP_temperature;BMP_pressure;BME280_temperature;BME280_humidity;BME280_pressure;Samples;Min_cycle;Max_cycle;Signal;HPM_P1;HPM_P2
2022/05/04 00:47:09;;;;;;;8.75;5.88;;;;;;;;;;6177963;22;1270767;-91
2022/05/04 00:50:15;;;;;;;11.13;6.03;;;;;;;;;;6218057;23;20170;-89
2022/05/04 00:53:21;;;;;;;9.32;5.47;;;;;;;;;;6218864;23;20174;-91
2022/05/04 00:56:26;;;;;;;8.75;4.97;;;;;;;;;;6217385;23;20168;-90
2022/05/04 00:59:31;;;;;;;9.57;5.18;;;;;;;;;;6218868;23;20686;-91
2022/05/04 01:02:38;;;;;;;8.88;4.65;;;;;;;;;;6215082;23;20167;-90
2022/05/04 01:05:43;;;;;;;8.80;4.88;;;;;;;;;;6211424;23;20263;-90
2022/05/04 01:08:49;;;;;;;6.35;4.47;;;;;;;;;;6211636;23;20166;-90
2022/05/04 01:11:55;;;;;;;5.72;4.72;;;;;;;;;;6211175;23;20198;-90
2022/05/04 01:15:00;;;;;;;8.38;4.63;;;;;;;;;;6212248;23;20155;-90
2022/05/04 01:18:09;;;;;;;12.55;6.03;;;;;;;;;;6211178;23;20168;-90
2022/05/04 01:21:15;;;;;;;9.65;5.90;;;;;;;;;;6211424;23;20167;-90
2022/05/04 01:24:21;;;;;;;9.20;5.43;;;;;;;;;;6212940;23;20615;-91
2022/05/04 01:27:27;;;;;;;9.85;5.03;;;;;;;;;;6213558;23;20206;-91
2022/05/04 01:30:35;;;;;;;16.13;5.05;;;;;;;;;;6213677;23;20237;-90
2022/05/04 01:33:41;;;;;;;9.13;5.20;;;;;;;;;;6213225;23;20179;-91
2022/05/04 01:36:45;;;;;;;8.45;5.10;;;;;;;;;;6212087;23;20170;-91
2022/05/04 01:39:52;;;;;;;9.32;5.28;;;;;;;;;;6212438;23;20219;-90
2022/05/04 01:42:57;;;;;;;8.75;5.35;;;;;;;;;;6211463;23;20291;-90
2022/05/04 01:46:02;;;;;;;15.63;7.45;;;;;;;;;;6211237;23;20199;-90
2022/05/04 01:49:07;;;;;;;8.45;5.30;;;;;;;;;;6210916;23;20155;-90
2022/05/04 01:52:13;;;;;;;8.52;5.00;;;;;;;;;;6210394;23;20249;-90
2022/05/04 01:55:19;;;;;;;9.32;5.45;;;;;;;;;;6210970;23;20545;-90
2022/05/04 01:58:24;;;;;;;8.15;5.50;;;;;;;;;;6211138;23;20273;-90
2022/05/04 02:01:30;;;;;;;9.07;5.72;;;;;;;;;;6209161;23;20282;-90
2022/05/04 02:04:35;;;;;;;10.88;5.93;;;;;;;;;;6211718;23;20155;-89
2022/05/04 02:07:41;;;;;;;10.95;5.57;;;;;;;;;;6210542;23;20167;-90
2022/05/04 02:10:48;;;;;;;9.63;5.78;;;;;;;;;;6209113;23;20868;-90
2022/05/04 02:13:53;;;;;;;14.73;7.40;;;;;;;;;;6210423;23;20151;-91
2022/05/04 02:16:59;;;;;;;15.13;6.70;;;;;;;;;;6208908;23;20166;-91
2022/05/04 02:20:04;;;;;;;8.75;5.75;;;;;;;;;;6209046;23;20237;-90
2022/05/04 02:23:09;;;;;;;10.70;5.90;;;;;;;;;;6208250;23;20171;-90
2022/05/04 02:26:15;;;;;;;13.05;5.85;;;;;;;;;;6209765;23;20147;-90
2022/05/04 02:29:21;;;;;;;10.23;6.18;;;;;;;;;;6209774;23;20172;-90
2022/05/04 02:32:26;;;;;;;15.13;7.38;;;;;;;;;;6210612;23;20287;-89
2022/05/04 02:38:55;;;;;;;24.48;9.25;;;;;;;;;;6209422;23;20224;-91
2022/05/04 02:42:02;;;;;;;26.25;10.10;;;;;;;;;;6209077;23;20171;-89
2022/05/04 02:45:08;;;;;;;20.45;9.13;;;;;;;;;;6209571;23;20238;-91
2022/05/04 02:48:13;;;;;;;20.98;9.13;;;;;;;;;;6209193;23;20214;-90
2022/05/04 02:51:18;;;;;;;15.93;7.88;;;;;;;;;;6210226;23;20513;-90
2022/05/04 02:54:24;;;;;;;19.70;8.18;;;;;;;;;;6208930;23;20168;-91
2022/05/04 02:57:30;;;;;;;16.45;8.15;;;;;;;;;;6209923;23;20195;-91
2022/05/04 03:00:34;;;;;;;23.48;9.02;;;;;;;;;;6209308;23;20287;-90
2022/05/04 03:03:39;;;;;;;16.90;8.25;;;;;;;;;;6208170;23;20162;-90
2022/05/04 03:06:44;;;;;;;17.73;8.10;;;;;;;;;;6210336;23;20190;-90
2022/05/04 03:09:49;;;;;;;11.80;6.70;;;;;;;;;;6209349;23;20175;-90
2022/05/04 03:12:56;;;;;;;11.23;7.00;;;;;;;;;;6211274;23;20242;-89
